sensor_id;sensor_type;location;lat;lon;timestamp;temperature;humidity
71128;SHT30;59249;59.736;30.568;2023-10-08T00:01:52;2.15;99.99
71128;SHT30;59249;59.736;30.568;2023-10-08T00:04:23;2.04;99.99
71128;SHT30;59249;59.736;30.568;2023-10-08T00:06:54;1.98;99.99
71128;SHT30;59249;59.736;30.568;2023-10-08T00:09:23;1.93;99.99
71128;SHT30;59249;59.736;30.568;2023-10-08T00:11:54;2.02;99.99
71128;SHT30;59249;59.736;30.568;2023-10-08T00:14:24;1.96;99.99
71128;SHT30;59249;59.736;30.568;2023-10-08T00:16:53;2.06;99.99
71128;SHT30;59249;59.736;30.568;2023-10-08T00:19:23;2.07;99.99
71128;SHT30;59249;59.736;30.568;2023-10-08T00:21:53;1.95;99.99
71128;SHT30;59249;59.736;30.568;2023-10-08T00:24:43;2.02;99.99
71128;SHT30;59249;59.736;30.568;2023-10-08T00:27:14;2.08;99.99
71128;SHT30;59249;59.736;30.568;2023-10-08T00:29:45;2.12;99.99
71128;SHT30;59249;59.736;30.568;2023-10-08T00:32:14;2.17;99.99
71128;SHT30;59249;59.736;30.568;2023-10-08T00:34:44;2.04;99.99
71128;SHT30;59249;59.736;30.568;2023-10-08T00:37:15;2.14;99.99
71128;SHT30;59249;59.736;30.568;2023-10-08T00:39:48;2.04;99.99
71128;SHT30;59249;59.736;30.568;2023-10-08T00:42:30;2.19;99.99
71128;SHT30;59249;59.736;30.568;2023-10-08T00:45:06;2.19;99.99
71128;SHT30;59249;59.736;30.568;2023-10-08T00:47:41;2.10;99.99
71128;SHT30;59249;59.736;30.568;2023-10-08T00:50:11;2.20;99.99
71128;SHT30;59249;59.736;30.568;2023-10-08T00:53:04;2.18;99.99
71128;SHT30;59249;59.736;30.568;2023-10-08T00:55:46;2.14;99.99
71128;SHT30;59249;59.736;30.568;2023-10-08T00:58:20;2.09;99.99
71128;SHT30;59249;59.736;30.568;2023-10-08T01:00:53;2.11;99.99
71128;SHT30;59249;59.736;30.568;2023-10-08T01:03:27;2.22;99.99
71128;SHT30;59249;59.736;30.568;2023-10-08T01:05:57;2.22;99.99
71128;SHT30;59249;59.736;30.568;2023-10-08T01:08:28;2.22;99.99
71128;SHT30;59249;59.736;30.568;2023-10-08T01:11:21;2.09;99.99
71128;SHT30;59249;59.736;30.568;2023-10-08T01:13:59;2.01;99.99
71128;SHT30;59249;59.736;30.568;2023-10-08T01:16:28;1.97;99.99
71128;SHT30;59249;59.736;30.568;2023-10-08T01:19:05;2.02;99.99
71128;SHT30;59249;59.736;30.568;2023-10-08T01:21:40;2.06;99.99
71128;SHT30;59249;59.736;30.568;2023-10-08T01:24:17;1.98;99.99
71128;SHT30;59249;59.736;30.568;2023-10-08T01:26:52;2.06;99.99
71128;SHT30;59249;59.736;30.568;2023-10-08T01:29:20;2.09;99.99
71128;SHT30;59249;59.736;30.568;2023-10-08T01:31:53;2.04;99.99
71128;SHT30;59249;59.736;30.568;2023-10-08T01:34:33;2.06;99.99
71128;SHT30;59249;59.736;30.568;2023-10-08T01:37:04;1.90;99.99
71128;SHT30;59249;59.736;30.568;2023-10-08T01:39:38;1.97;99.99
71128;SHT30;59249;59.736;30.568;2023-10-08T01:42:09;1.95;99.99
71128;SHT30;59249;59.736;30.568;2023-10-08T01:44:44;1.97;99.99
71128;SHT30;59249;59.736;30.568;2023-10-08T01:47:15;1.86;99.99
71128;SHT30;59249;59.736;30.568;2023-10-08T01:49:47;1.89;99.99
71128;SHT30;59249;59.736;30.568;2023-10-08T01:52:18;1.99;99.99
71128;SHT30;59249;59.736;30.568;2023-10-08T01:54:51;1.94;99.99
71128;SHT30;59249;59.736;30.568;2023-10-08T01:57:21;1.89;99.99
71128;SHT30;59249;59.736;30.568;2023-10-08T01:59:51;1.82;99.99
71128;SHT30;59249;59.736;30.568;2023-10-08T02:02:20;1.95;99.99
71128;SHT30;59249;59.736;30.568;2023-10-08T02:04:49;1.86;99.99
71128;SHT30;59249;59.736;30.568;2023-10-08T02:07:27;1.86;99.99
71128;SHT30;59249;59.736;30.568;2023-10-08T02:09:58;1.97;99.99
71128;SHT30;59249;59.736;30.568;2023-10-08T02:12:48;1.86;99.99
71128;SHT30;59249;59.736;30.568;2023-10-08T02:15:17;1.96;99.99
71128;SHT30;59249;59.736;30.568;2023-10-08T02:17:45;1.97;99.99
71128;SHT30;59249;59.736;30.568;2023-10-08T02:20:20;1.90;99.99
71128;SHT30;59249;59.736;30.568;2023-10-08T02:23:09;1.62;99.99
71128;SHT30;59249;59.736;30.568;2023-10-08T02:25:41;1.68;99.99
71128;SHT30;59249;59.736;30.568;2023-10-08T02:28:10;1.71;99.99
71128;SHT30;59249;59.736;30.568;2023-10-08T02:30:43;1.74;99.99
71128;SHT30;59249;59.736;30.568;2023-10-08T02:33:12;1.66;99.99
71128;SHT30;59249;59.736;30.568;2023-10-08T02:35:45;1.71;99.99
71128;SHT30;59249;59.736;30.568;2023-10-08T02:38:17;1.77;99.99
71128;SHT30;59249;59.736;30.568;2023-10-08T02:40:50;1.78;99.99
71128;SHT30;59249;59.736;30.568;2023-10-08T02:43:24;1.64;99.99
71128;SHT30;59249;59.736;30.568;2023-10-08T02:45:53;1.72;99.99
71128;SHT30;59249;59.736;30.568;2023-10-08T02:48:23;1.69;99.99
71128;SHT30;59249;59.736;30.568;2023-10-08T02:50:56;1.69;99.99
71128;SHT30;59249;59.736;30.568;2023-10-08T02:53:35;1.65;99.99
71128;SHT30;59249;59.736;30.568;2023-10-08T02:56:06;1.59;99.99
71128;SHT30;59249;59.736;30.568;2023-10-08T02:58:40;1.61;99.99
71128;SHT30;59249;59.736;30.568;2023-10-08T03:01:11;1.52;99.99
71128;SHT30;59249;59.736;30.568;2023-10-08T03:03:44;1.60;99.99
71128;SHT30;59249;59.736;30.568;2023-10-08T03:06:14;1.52;99.99
71128;SHT30;59249;59.736;30.568;2023-10-08T03:08:45;1.61;99.99
71128;SHT30;59249;59.736;30.568;2023-10-08T03:11:16;1.54;99.99
71128;SHT30;59249;59.736;30.568;2023-10-08T03:13:45;1.51;99.99
71128;SHT30;59249;59.736;30.568;2023-10-08T03:16:19;1.57;99.99
71128;SHT30;59249;59.736;30.568;2023-10-08T03:18:55;1.67;99.99
71128;SHT30;59249;59.736;30.568;2023-10-08T03:21:28;1.61;99.99
71128;SHT30;59249;59.736;30.568;2023-10-08T03:24:16;1.66;99.99
71128;SHT30;59249;59.736;30.568;2023-10-08T03:27:07;1.71;99.99
71128;SHT30;59249;59.736;30.568;2023-10-08T03:29:40;1.69;99.99
71128;SHT30;59249;59.736;30.568;2023-10-08T03:32:16;1.58;99.99
71128;SHT30;59249;59.736;30.568;2023-10-08T03:34:47;1.51;99.99
71128;SHT30;59249;59.736;30.568;2023-10-08T03:37:20;1.63;99.99
71128;SHT30;59249;59.736;30.568;2023-10-08T03:39:56;1.52;99.99
71128;SHT30;59249;59.736;30.568;2023-10-08T03:42:56;1.64;99.99
71128;SHT30;59249;59.736;30.568;2023-10-08T03:45:24;1.60;99.99
71128;SHT30;59249;59.736;30.568;2023-10-08T03:48:11;1.51;99.99
71128;SHT30;59249;59.736;30.568;2023-10-08T03:50:43;1.59;99.99
71128;SHT30;59249;59.736;30.568;2023-10-08T03:53:12;1.60;99.99
71128;SHT30;59249;59.736;30.568;2023-10-08T03:55:41;1.64;99.99
71128;SHT30;59249;59.736;30.568;2023-10-08T03:58:11;1.56;99.99
71128;SHT30;59249;59.736;30.568;2023-10-08T04:00:54;1.55;99.99
71128;SHT30;59249;59.736;30.568;2023-10-08T04:03:36;1.58;99.99
71128;SHT30;59249;59.736;30.568;2023-10-08T04:06:28;1.65;99.99
71128;SHT30;59249;59.736;30.568;2023-10-08T04:09:06;1.71;99.99
71128;SHT30;59249;59.736;30.568;2023-10-08T04:12:00;1.72;99.99
71128;SHT30;59249;59.736;30.568;2023-10-08T04:14:39;1.76;99.99
71128;SHT30;59249;59.736;30.568;2023-10-08T04:17:08;1.71;99.99
71128;SHT30;59249;59.736;30.568;2023-10-08T04:19:39;1.94;99.99
71128;SHT30;59249;59.736;30.568;2023-10-08T04:22:19;1.94;99.99
71128;SHT30;59249;59.736;30.568;2023-10-08T04:24:53;1.86;99.99
71128;SHT30;59249;59.736;30.568;2023-10-08T04:27:26;1.89;99.99
71128;SHT30;59249;59.736;30.568;2023-10-08T04:29:59;1.92;99.99
71128;SHT30;59249;59.736;30.568;2023-10-08T04:32:33;2.06;99.99
71128;SHT30;59249;59.736;30.568;2023-10-08T04:35:08;2.11;99.99
71128;SHT30;59249;59.736;30.568;2023-10-08T04:37:45;2.18;99.99
71128;SHT30;59249;59.736;30.568;2023-10-08T04:40:29;2.23;99.99
71128;SHT30;59249;59.736;30.568;2023-10-08T04:43:06;2.13;99.99
71128;SHT30;59249;59.736;30.568;2023-10-08T04:45:40;2.14;99.99
71128;SHT30;59249;59.736;30.568;2023-10-08T04:48:12;2.17;99.99
71128;SHT30;59249;59.736;30.568;2023-10-08T04:51:00;2.18;99.99
71128;SHT30;59249;59.736;30.568;2023-10-08T04:53:35;2.27;99.99
71128;SHT30;59249;59.736;30.568;2023-10-08T04:56:11;2.11;99.99
71128;SHT30;59249;59.736;30.568;2023-10-08T04:58:47;1.98;99.99
71128;SHT30;59249;59.736;30.568;2023-10-08T05:01:19;2.10;99.99
71128;SHT30;59249;59.736;30.568;2023-10-08T05:03:57;2.09;99.99
71128;SHT30;59249;59.736;30.568;2023-10-08T05:06:53;2.03;99.99
71128;SHT30;59249;59.736;30.568;2023-10-08T05:09:56;2.07;99.99
71128;SHT30;59249;59.736;30.568;2023-10-08T05:12:45;2.03;99.99
71128;SHT30;59249;59.736;30.568;2023-10-08T05:15:18;2.05;99.99
71128;SHT30;59249;59.736;30.568;2023-10-08T05:18:01;2.08;99.99
71128;SHT30;59249;59.736;30.568;2023-10-08T05:20:41;2.16;99.99
71128;SHT30;59249;59.736;30.568;2023-10-08T05:23:27;2.17;99.99
71128;SHT30;59249;59.736;30.568;2023-10-08T05:26:22;2.13;99.99
71128;SHT30;59249;59.736;30.568;2023-10-08T05:28:59;2.13;99.99
71128;SHT30;59249;59.736;30.568;2023-10-08T05:31:52;2.11;99.99
71128;SHT30;59249;59.736;30.568;2023-10-08T05:34:41;1.98;99.99
71128;SHT30;59249;59.736;30.568;2023-10-08T05:37:24;2.32;99.99
71128;SHT30;59249;59.736;30.568;2023-10-08T05:40:10;2.18;99.99
71128;SHT30;59249;59.736;30.568;2023-10-08T05:43:06;2.11;99.99
71128;SHT30;59249;59.736;30.568;2023-10-08T05:45:50;2.09;99.99
71128;SHT30;59249;59.736;30.568;2023-10-08T05:48:40;2.17;99.99
71128;SHT30;59249;59.736;30.568;2023-10-08T05:51:29;2.15;99.99
71128;SHT30;59249;59.736;30.568;2023-10-08T05:54:12;2.15;99.99
71128;SHT30;59249;59.736;30.568;2023-10-08T05:57:05;2.18;99.99
71128;SHT30;59249;59.736;30.568;2023-10-08T05:59:37;2.28;99.99
71128;SHT30;59249;59.736;30.568;2023-10-08T06:02:22;2.44;99.99
71128;SHT30;59249;59.736;30.568;2023-10-08T06:04:58;2.32;99.99
71128;SHT30;59249;59.736;30.568;2023-10-08T06:07:51;2.42;99.99
71128;SHT30;59249;59.736;30.568;2023-10-08T06:10:27;2.46;99.99
71128;SHT30;59249;59.736;30.568;2023-10-08T06:13:13;2.53;99.99
71128;SHT30;59249;59.736;30.568;2023-10-08T06:15:47;2.47;99.99
71128;SHT30;59249;59.736;30.568;2023-10-08T06:18:33;2.50;99.99
71128;SHT30;59249;59.736;30.568;2023-10-08T06:21:04;2.39;99.99
71128;SHT30;59249;59.736;30.568;2023-10-08T06:23:37;2.35;99.99
71128;SHT30;59249;59.736;30.568;2023-10-08T06:26:09;2.38;99.99
71128;SHT30;59249;59.736;30.568;2023-10-08T06:28:52;2.34;99.99
71128;SHT30;59249;59.736;30.568;2023-10-08T06:31:26;2.36;99.99
71128;SHT30;59249;59.736;30.568;2023-10-08T06:33:59;2.44;99.99
71128;SHT30;59249;59.736;30.568;2023-10-08T06:36:30;2.61;99.99
71128;SHT30;59249;59.736;30.568;2023-10-08T06:39:00;2.53;99.99
71128;SHT30;59249;59.736;30.568;2023-10-08T06:41:31;2.53;99.99
71128;SHT30;59249;59.736;30.568;2023-10-08T06:44:17;2.58;99.99
71128;SHT30;59249;59.736;30.568;2023-10-08T06:46:47;2.56;99.99
71128;SHT30;59249;59.736;30.568;2023-10-08T06:49:20;2.53;99.99
71128;SHT30;59249;59.736;30.568;2023-10-08T06:51:51;2.60;99.99
71128;SHT30;59249;59.736;30.568;2023-10-08T06:54:22;2.63;99.99
71128;SHT30;59249;59.736;30.568;2023-10-08T06:56:51;2.65;99.99
71128;SHT30;59249;59.736;30.568;2023-10-08T06:59:20;2.65;99.99
71128;SHT30;59249;59.736;30.568;2023-10-08T07:01:55;2.60;99.99
71128;SHT30;59249;59.736;30.568;2023-10-08T07:04:26;2.75;99.99
71128;SHT30;59249;59.736;30.568;2023-10-08T07:06:57;2.69;99.99
71128;SHT30;59249;59.736;30.568;2023-10-08T07:09:28;2.73;99.99
71128;SHT30;59249;59.736;30.568;2023-10-08T07:12:04;2.67;99.99
71128;SHT30;59249;59.736;30.568;2023-10-08T07:14:42;2.73;99.99
71128;SHT30;59249;59.736;30.568;2023-10-08T07:17:12;2.68;99.99
71128;SHT30;59249;59.736;30.568;2023-10-08T07:19:48;2.86;99.99
71128;SHT30;59249;59.736;30.568;2023-10-08T07:22:20;2.70;99.99
71128;SHT30;59249;59.736;30.568;2023-10-08T07:25:09;2.80;99.99
71128;SHT30;59249;59.736;30.568;2023-10-08T07:27:43;3.03;99.99
71128;SHT30;59249;59.736;30.568;2023-10-08T07:30:13;3.01;99.99
71128;SHT30;59249;59.736;30.568;2023-10-08T07:32:55;3.01;99.99
71128;SHT30;59249;59.736;30.568;2023-10-08T07:35:26;3.16;99.99
71128;SHT30;59249;59.736;30.568;2023-10-08T07:37:58;3.06;99.99
71128;SHT30;59249;59.736;30.568;2023-10-08T07:40:29;3.00;99.99
71128;SHT30;59249;59.736;30.568;2023-10-08T07:43:01;3.18;99.99
71128;SHT30;59249;59.736;30.568;2023-10-08T07:45:37;3.13;99.99
71128;SHT30;59249;59.736;30.568;2023-10-08T07:48:09;3.00;99.99
71128;SHT30;59249;59.736;30.568;2023-10-08T07:50:45;3.11;99.99
71128;SHT30;59249;59.736;30.568;2023-10-08T07:53:20;3.37;99.99
71128;SHT30;59249;59.736;30.568;2023-10-08T07:55:50;3.20;99.99
71128;SHT30;59249;59.736;30.568;2023-10-08T07:58:22;3.32;99.99
71128;SHT30;59249;59.736;30.568;2023-10-08T08:01:04;3.36;99.99
71128;SHT30;59249;59.736;30.568;2023-10-08T08:03:36;3.37;99.99
71128;SHT30;59249;59.736;30.568;2023-10-08T08:06:08;3.30;99.99
71128;SHT30;59249;59.736;30.568;2023-10-08T08:08:39;3.46;99.99
71128;SHT30;59249;59.736;30.568;2023-10-08T08:11:11;3.52;99.99
71128;SHT30;59249;59.736;30.568;2023-10-08T08:13:46;3.31;99.99
71128;SHT30;59249;59.736;30.568;2023-10-08T08:16:22;3.46;99.99
71128;SHT30;59249;59.736;30.568;2023-10-08T08:19:03;3.59;99.99
71128;SHT30;59249;59.736;30.568;2023-10-08T08:21:41;3.48;99.99
71128;SHT30;59249;59.736;30.568;2023-10-08T08:24:13;3.52;99.99
71128;SHT30;59249;59.736;30.568;2023-10-08T08:26:56;3.55;99.99
71128;SHT30;59249;59.736;30.568;2023-10-08T08:29:35;3.90;99.99
71128;SHT30;59249;59.736;30.568;2023-10-08T08:32:12;3.81;99.99
71128;SHT30;59249;59.736;30.568;2023-10-08T08:34:48;3.83;99.99
71128;SHT30;59249;59.736;30.568;2023-10-08T08:37:19;4.07;99.99
71128;SHT30;59249;59.736;30.568;2023-10-08T08:39:52;3.85;99.99
71128;SHT30;59249;59.736;30.568;2023-10-08T08:42:22;3.89;99.97
71128;SHT30;59249;59.736;30.568;2023-10-08T08:44:56;3.79;99.99
71128;SHT30;59249;59.736;30.568;2023-10-08T08:47:27;4.07;99.99
71128;SHT30;59249;59.736;30.568;2023-10-08T08:50:02;3.97;99.99
71128;SHT30;59249;59.736;30.568;2023-10-08T08:52:36;4.02;99.63
71128;SHT30;59249;59.736;30.568;2023-10-08T08:55:09;3.99;99.99
71128;SHT30;59249;59.736;30.568;2023-10-08T08:57:43;3.93;99.97
71128;SHT30;59249;59.736;30.568;2023-10-08T09:00:17;3.90;99.99
71128;SHT30;59249;59.736;30.568;2023-10-08T09:02:48;3.89;99.99
71128;SHT30;59249;59.736;30.568;2023-10-08T09:05:22;3.77;99.99
71128;SHT30;59249;59.736;30.568;2023-10-08T09:08:03;3.83;99.99
71128;SHT30;59249;59.736;30.568;2023-10-08T09:10:35;4.07;99.99
71128;SHT30;59249;59.736;30.568;2023-10-08T09:13:08;4.00;99.97
71128;SHT30;59249;59.736;30.568;2023-10-08T09:15:38;4.02;99.99
71128;SHT30;59249;59.736;30.568;2023-10-08T09:18:09;4.08;99.99
71128;SHT30;59249;59.736;30.568;2023-10-08T09:20:40;4.18;99.52
71128;SHT30;59249;59.736;30.568;2023-10-08T09:23:17;4.19;99.30
71128;SHT30;59249;59.736;30.568;2023-10-08T09:25:49;4.09;98.97
71128;SHT30;59249;59.736;30.568;2023-10-08T09:28:31;4.07;99.99
71128;SHT30;59249;59.736;30.568;2023-10-08T09:31:03;3.93;99.87
71128;SHT30;59249;59.736;30.568;2023-10-08T09:33:34;3.97;99.99
71128;SHT30;59249;59.736;30.568;2023-10-08T09:36:09;3.77;99.99
71128;SHT30;59249;59.736;30.568;2023-10-08T09:38:52;3.93;99.99
71128;SHT30;59249;59.736;30.568;2023-10-08T09:41:22;3.85;99.99
71128;SHT30;59249;59.736;30.568;2023-10-08T09:43:55;3.86;99.91
71128;SHT30;59249;59.736;30.568;2023-10-08T09:46:30;4.09;99.34
71128;SHT30;59249;59.736;30.568;2023-10-08T09:49:02;3.99;99.86
71128;SHT30;59249;59.736;30.568;2023-10-08T09:51:47;3.92;99.99
71128;SHT30;59249;59.736;30.568;2023-10-08T09:54:28;4.02;99.99
71128;SHT30;59249;59.736;30.568;2023-10-08T09:57:02;4.02;99.99
71128;SHT30;59249;59.736;30.568;2023-10-08T09:59:37;4.28;99.85
71128;SHT30;59249;59.736;30.568;2023-10-08T10:02:08;4.08;99.99
71128;SHT30;59249;59.736;30.568;2023-10-08T10:04:44;4.16;99.99
71128;SHT30;59249;59.736;30.568;2023-10-08T10:07:15;4.35;99.63
71128;SHT30;59249;59.736;30.568;2023-10-08T10:09:46;4.46;99.60
71128;SHT30;59249;59.736;30.568;2023-10-08T10:12:20;4.18;99.61
71128;SHT30;59249;59.736;30.568;2023-10-08T10:14:55;4.25;99.31
71128;SHT30;59249;59.736;30.568;2023-10-08T10:17:27;4.23;99.54
71128;SHT30;59249;59.736;30.568;2023-10-08T10:20:13;4.28;99.30
71128;SHT30;59249;59.736;30.568;2023-10-08T10:22:53;4.31;99.25
71128;SHT30;59249;59.736;30.568;2023-10-08T10:25:34;4.33;99.99
71128;SHT30;59249;59.736;30.568;2023-10-08T10:28:23;4.34;99.27
71128;SHT30;59249;59.736;30.568;2023-10-08T10:30:52;4.31;98.73
71128;SHT30;59249;59.736;30.568;2023-10-08T10:33:22;4.38;98.58
71128;SHT30;59249;59.736;30.568;2023-10-08T10:36:01;4.42;99.08
71128;SHT30;59249;59.736;30.568;2023-10-08T10:38:35;4.42;98.07
71128;SHT30;59249;59.736;30.568;2023-10-08T10:41:04;4.36;98.25
71128;SHT30;59249;59.736;30.568;2023-10-08T10:43:36;4.42;98.26
71128;SHT30;59249;59.736;30.568;2023-10-08T10:46:07;4.47;96.44
71128;SHT30;59249;59.736;30.568;2023-10-08T10:48:57;4.49;96.86
71128;SHT30;59249;59.736;30.568;2023-10-08T10:51:49;4.53;96.34
71128;SHT30;59249;59.736;30.568;2023-10-08T10:54:26;4.53;96.75
71128;SHT30;59249;59.736;30.568;2023-10-08T10:57:07;4.49;96.02
71128;SHT30;59249;59.736;30.568;2023-10-08T10:59:46;4.68;96.67
71128;SHT30;59249;59.736;30.568;2023-10-08T11:02:21;4.84;96.75
71128;SHT30;59249;59.736;30.568;2023-10-08T11:05:02;4.93;95.63
71128;SHT30;59249;59.736;30.568;2023-10-08T11:07:37;5.00;95.03
71128;SHT30;59249;59.736;30.568;2023-10-08T11:10:12;4.92;94.88
71128;SHT30;59249;59.736;30.568;2023-10-08T11:12:56;4.75;94.73
71128;SHT30;59249;59.736;30.568;2023-10-08T11:15:32;4.92;95.57
71128;SHT30;59249;59.736;30.568;2023-10-08T11:18:10;4.85;95.25
71128;SHT30;59249;59.736;30.568;2023-10-08T11:20:43;4.78;95.10
71128;SHT30;59249;59.736;30.568;2023-10-08T11:23:35;4.81;95.33
71128;SHT30;59249;59.736;30.568;2023-10-08T11:26:07;4.72;95.29
71128;SHT30;59249;59.736;30.568;2023-10-08T11:28:48;4.64;96.45
71128;SHT30;59249;59.736;30.568;2023-10-08T11:31:20;4.74;95.84
71128;SHT30;59249;59.736;30.568;2023-10-08T11:33:49;4.75;95.92
71128;SHT30;59249;59.736;30.568;2023-10-08T11:36:23;4.58;95.23
71128;SHT30;59249;59.736;30.568;2023-10-08T11:38:56;4.71;95.61
71128;SHT30;59249;59.736;30.568;2023-10-08T11:41:31;4.47;96.40
71128;SHT30;59249;59.736;30.568;2023-10-08T11:44:14;4.56;96.74
71128;SHT30;59249;59.736;30.568;2023-10-08T11:46:47;4.61;95.83
71128;SHT30;59249;59.736;30.568;2023-10-08T11:49:26;4.53;96.82
71128;SHT30;59249;59.736;30.568;2023-10-08T11:51:55;4.63;96.09
71128;SHT30;59249;59.736;30.568;2023-10-08T11:54:25;4.53;96.01
71128;SHT30;59249;59.736;30.568;2023-10-08T11:56:56;4.62;95.88
71128;SHT30;59249;59.736;30.568;2023-10-08T11:59:26;4.60;96.39
71128;SHT30;59249;59.736;30.568;2023-10-08T12:01:57;4.72;95.51
71128;SHT30;59249;59.736;30.568;2023-10-08T12:04:26;4.81;94.27
71128;SHT30;59249;59.736;30.568;2023-10-08T12:06:57;4.65;96.06
71128;SHT30;59249;59.736;30.568;2023-10-08T12:09:30;4.62;95.59
71128;SHT30;59249;59.736;30.568;2023-10-08T12:12:03;4.56;96.05
71128;SHT30;59249;59.736;30.568;2023-10-08T12:14:37;4.67;96.04
71128;SHT30;59249;59.736;30.568;2023-10-08T12:17:06;4.47;95.84
71128;SHT30;59249;59.736;30.568;2023-10-08T12:19:39;4.54;95.44
71128;SHT30;59249;59.736;30.568;2023-10-08T12:22:15;4.38;95.08
71128;SHT30;59249;59.736;30.568;2023-10-08T12:24:49;4.55;94.94
71128;SHT30;59249;59.736;30.568;2023-10-08T12:27:23;4.52;94.47
71128;SHT30;59249;59.736;30.568;2023-10-08T12:29:55;4.38;95.33
71128;SHT30;59249;59.736;30.568;2023-10-08T12:32:29;4.44;95.55
71128;SHT30;59249;59.736;30.568;2023-10-08T12:35:06;4.47;95.65
71128;SHT30;59249;59.736;30.568;2023-10-08T12:37:49;4.55;94.75
71128;SHT30;59249;59.736;30.568;2023-10-08T12:40:26;4.42;94.63
71128;SHT30;59249;59.736;30.568;2023-10-08T12:43:13;4.28;95.09
71128;SHT30;59249;59.736;30.568;2023-10-08T12:45:48;4.51;95.27
71128;SHT30;59249;59.736;30.568;2023-10-08T12:48:27;4.29;95.67
71128;SHT30;59249;59.736;30.568;2023-10-08T12:50:56;4.40;95.88
71128;SHT30;59249;59.736;30.568;2023-10-08T12:53:27;4.27;95.43
71128;SHT30;59249;59.736;30.568;2023-10-08T12:56:09;4.42;95.22
71128;SHT30;59249;59.736;30.568;2023-10-08T12:58:44;4.44;95.15
71128;SHT30;59249;59.736;30.568;2023-10-08T13:01:16;4.51;94.74
71128;SHT30;59249;59.736;30.568;2023-10-08T13:03:46;4.40;95.05
71128;SHT30;59249;59.736;30.568;2023-10-08T13:06:21;4.41;95.30
71128;SHT30;59249;59.736;30.568;2023-10-08T13:08:57;4.42;95.83
71128;SHT30;59249;59.736;30.568;2023-10-08T13:11:27;4.45;96.06
71128;SHT30;59249;59.736;30.568;2023-10-08T13:13:59;4.34;96.42
71128;SHT30;59249;59.736;30.568;2023-10-08T13:16:30;4.27;96.39
71128;SHT30;59249;59.736;30.568;2023-10-08T13:19:00;4.20;96.36
71128;SHT30;59249;59.736;30.568;2023-10-08T13:21:30;4.34;96.72
71128;SHT30;59249;59.736;30.568;2023-10-08T13:24:00;4.21;97.28
71128;SHT30;59249;59.736;30.568;2023-10-08T13:26:30;4.21;98.07
71128;SHT30;59249;59.736;30.568;2023-10-08T13:29:05;4.21;98.42
71128;SHT30;59249;59.736;30.568;2023-10-08T13:31:44;4.09;98.46
71128;SHT30;59249;59.736;30.568;2023-10-08T13:34:18;4.02;98.46
71128;SHT30;59249;59.736;30.568;2023-10-08T13:36:53;3.98;99.05
71128;SHT30;59249;59.736;30.568;2023-10-08T13:39:33;4.01;98.78
71128;SHT30;59249;59.736;30.568;2023-10-08T13:42:03;4.01;98.65
71128;SHT30;59249;59.736;30.568;2023-10-08T13:44:35;4.03;99.05
71128;SHT30;59249;59.736;30.568;2023-10-08T13:47:07;3.98;99.05
71128;SHT30;59249;59.736;30.568;2023-10-08T13:49:45;4.02;98.88
71128;SHT30;59249;59.736;30.568;2023-10-08T13:52:19;4.02;98.68
71128;SHT30;59249;59.736;30.568;2023-10-08T13:54:56;4.11;98.88
71128;SHT30;59249;59.736;30.568;2023-10-08T13:57:29;4.07;97.53
71128;SHT30;59249;59.736;30.568;2023-10-08T14:00:02;4.09;98.62
71128;SHT30;59249;59.736;30.568;2023-10-08T14:02:39;3.98;98.29
71128;SHT30;59249;59.736;30.568;2023-10-08T14:05:09;4.07;98.34
71128;SHT30;59249;59.736;30.568;2023-10-08T14:07:40;3.99;98.50
71128;SHT30;59249;59.736;30.568;2023-10-08T14:10:12;4.18;97.33
71128;SHT30;59249;59.736;30.568;2023-10-08T14:12:47;4.30;96.89
71128;SHT30;59249;59.736;30.568;2023-10-08T14:15:27;4.21;96.91
71128;SHT30;59249;59.736;30.568;2023-10-08T14:18:02;4.16;96.85
71128;SHT30;59249;59.736;30.568;2023-10-08T14:20:39;4.20;97.42
71128;SHT30;59249;59.736;30.568;2023-10-08T14:23:10;4.25;96.72
71128;SHT30;59249;59.736;30.568;2023-10-08T14:25:39;4.25;96.35
71128;SHT30;59249;59.736;30.568;2023-10-08T14:28:12;4.28;96.30
71128;SHT30;59249;59.736;30.568;2023-10-08T14:30:53;4.02;96.26
71128;SHT30;59249;59.736;30.568;2023-10-08T14:33:24;3.99;97.44
71128;SHT30;59249;59.736;30.568;2023-10-08T14:35:55;4.09;98.04
71128;SHT30;59249;59.736;30.568;2023-10-08T14:38:41;3.99;97.94
71128;SHT30;59249;59.736;30.568;2023-10-08T14:41:27;4.24;96.51
71128;SHT30;59249;59.736;30.568;2023-10-08T14:44:14;4.13;97.14
71128;SHT30;59249;59.736;30.568;2023-10-08T14:46:45;4.10;97.42
71128;SHT30;59249;59.736;30.568;2023-10-08T14:49:21;4.13;97.66
71128;SHT30;59249;59.736;30.568;2023-10-08T14:51:53;4.04;97.36
71128;SHT30;59249;59.736;30.568;2023-10-08T14:54:22;4.05;96.94
71128;SHT30;59249;59.736;30.568;2023-10-08T14:56:52;4.01;97.54
71128;SHT30;59249;59.736;30.568;2023-10-08T14:59:21;4.11;97.52
71128;SHT30;59249;59.736;30.568;2023-10-08T15:01:55;4.05;97.88
71128;SHT30;59249;59.736;30.568;2023-10-08T15:04:30;4.14;97.78
71128;SHT30;59249;59.736;30.568;2023-10-08T15:07:00;4.11;96.81
71128;SHT30;59249;59.736;30.568;2023-10-08T15:09:28;4.02;96.60
71128;SHT30;59249;59.736;30.568;2023-10-08T15:11:57;4.14;96.51
71128;SHT30;59249;59.736;30.568;2023-10-08T15:14:27;4.06;96.93
71128;SHT30;59249;59.736;30.568;2023-10-08T15:16:57;4.13;96.60
71128;SHT30;59249;59.736;30.568;2023-10-08T15:19:28;4.10;96.85
71128;SHT30;59249;59.736;30.568;2023-10-08T15:22:00;4.24;96.17
71128;SHT30;59249;59.736;30.568;2023-10-08T15:24:30;4.07;95.80
71128;SHT30;59249;59.736;30.568;2023-10-08T15:27:05;4.02;94.87
71128;SHT30;59249;59.736;30.568;2023-10-08T15:29:34;4.26;94.72
71128;SHT30;59249;59.736;30.568;2023-10-08T15:32:06;4.16;94.52
71128;SHT30;59249;59.736;30.568;2023-10-08T15:34:35;4.20;94.08
71128;SHT30;59249;59.736;30.568;2023-10-08T15:37:12;4.24;94.74
71128;SHT30;59249;59.736;30.568;2023-10-08T15:39:43;4.08;94.33
71128;SHT30;59249;59.736;30.568;2023-10-08T15:42:17;4.24;94.35
71128;SHT30;59249;59.736;30.568;2023-10-08T15:44:46;4.29;94.35
71128;SHT30;59249;59.736;30.568;2023-10-08T15:47:16;4.32;94.33
71128;SHT30;59249;59.736;30.568;2023-10-08T15:49:45;4.43;93.19
71128;SHT30;59249;59.736;30.568;2023-10-08T15:52:14;4.24;93.17
71128;SHT30;59249;59.736;30.568;2023-10-08T15:54:43;4.37;93.49
71128;SHT30;59249;59.736;30.568;2023-10-08T15:57:13;4.43;93.34
71128;SHT30;59249;59.736;30.568;2023-10-08T15:59:42;4.38;92.75
71128;SHT30;59249;59.736;30.568;2023-10-08T16:02:12;4.36;93.26
71128;SHT30;59249;59.736;30.568;2023-10-08T16:04:43;4.35;93.32
71128;SHT30;59249;59.736;30.568;2023-10-08T16:07:12;4.51;93.72
71128;SHT30;59249;59.736;30.568;2023-10-08T16:09:41;4.37;93.31
71128;SHT30;59249;59.736;30.568;2023-10-08T16:12:11;4.42;94.18
71128;SHT30;59249;59.736;30.568;2023-10-08T16:14:40;4.45;93.59
71128;SHT30;59249;59.736;30.568;2023-10-08T16:17:10;4.34;94.01
71128;SHT30;59249;59.736;30.568;2023-10-08T16:19:44;4.37;94.28